createdAt,value
2022-12-11T00:01:25.978Z,0.70
2022-12-11T00:04:29.564Z,0.90
2022-12-11T00:07:32.909Z,0.90
2022-12-11T00:10:37.911Z,0.82
2022-12-11T00:13:42.506Z,1.45
2022-12-11T00:16:49.139Z,0.40
2022-12-11T00:19:53.174Z,1.57
2022-12-11T00:22:57.915Z,0.63
2022-12-11T00:26:02.147Z,1.20
2022-12-11T00:29:06.031Z,1.88
2022-12-11T00:32:09.680Z,2.28
2022-12-11T00:35:13.794Z,4.20
2022-12-11T00:38:19.913Z,3.67
2022-12-11T00:41:23.716Z,3.90
2022-12-11T00:44:27.916Z,3.45
2022-12-11T00:47:31.266Z,2.85
2022-12-11T00:50:35.833Z,2.90
2022-12-11T00:53:40.259Z,2.73
2022-12-11T00:56:44.031Z,2.40
2022-12-11T00:59:48.164Z,2.03
2022-12-11T01:02:52.624Z,2.95
2022-12-11T01:05:56.421Z,2.10
2022-12-11T01:09:18.740Z,1.55
2022-12-11T01:12:22.340Z,1.05
2022-12-11T01:15:30.656Z,2.42
2022-12-11T01:18:35.619Z,2.87
2022-12-11T01:21:39.172Z,2.10
2022-12-11T01:24:51.957Z,1.83
2022-12-11T01:27:56.434Z,2.35
2022-12-11T01:31:00.218Z,2.33
2022-12-11T01:34:03.292Z,3.13
2022-12-11T01:37:06.267Z,3.15
2022-12-11T01:40:12.305Z,2.67
2022-12-11T01:43:15.347Z,2.83
2022-12-11T01:46:19.307Z,2.20
2022-12-11T01:49:27.408Z,4.40
2022-12-11T01:52:30.799Z,2.95
2022-12-11T01:55:35.387Z,4.22
2022-12-11T01:58:47.862Z,3.13
2022-12-11T02:02:05.716Z,3.03
2022-12-11T02:05:10.385Z,4.32
2022-12-11T02:08:14.039Z,3.72
2022-12-11T02:11:22.777Z,3.72
2022-12-11T02:14:42.574Z,3.67
2022-12-11T02:17:51.821Z,2.08
2022-12-11T02:21:08.563Z,2.13
2022-12-11T02:24:42.843Z,1.05
2022-12-11T02:27:54.028Z,2.05
2022-12-11T02:31:15.140Z,4.37
2022-12-11T02:34:29.903Z,3.22
2022-12-11T02:37:37.289Z,1.60
2022-12-11T02:40:43.151Z,1.52
2022-12-11T02:43:48.730Z,1.67
2022-12-11T02:46:53.762Z,2.93
2022-12-11T02:50:01.198Z,2.00
2022-12-11T02:53:07.618Z,3.72
2022-12-11T02:56:22.979Z,3.30
2022-12-11T02:59:47.162Z,2.00
2022-12-11T03:02:50.927Z,2.38
2022-12-11T03:05:54.913Z,2.30
2022-12-11T03:08:58.981Z,3.00
2022-12-11T03:12:03.314Z,2.50
2022-12-11T03:15:11.912Z,2.05
2022-12-11T03:18:39.632Z,3.13
2022-12-11T03:22:12.402Z,4.03
2022-12-11T03:25:26.979Z,3.63
2022-12-11T03:28:44.538Z,3.57
2022-12-11T03:32:02.208Z,3.40
2022-12-11T03:35:14.768Z,4.00
2022-12-11T03:38:25.557Z,4.63
2022-12-11T03:41:32.126Z,5.27
2022-12-11T03:44:36.754Z,7.03
2022-12-11T03:47:42.655Z,5.03
2022-12-11T03:50:48.600Z,4.97
2022-12-11T03:53:53.300Z,4.20
2022-12-11T03:56:59.898Z,2.93
2022-12-11T04:00:07.314Z,4.55
2022-12-11T04:03:14.930Z,5.28
2022-12-11T04:06:19.179Z,4.43
2022-12-11T04:09:22.926Z,4.30
2022-12-11T04:12:27.075Z,4.80
2022-12-11T04:15:30.397Z,5.03
2022-12-11T04:18:52.239Z,4.60
2022-12-11T04:22:13.725Z,4.65
2022-12-11T04:25:17.095Z,4.97
2022-12-11T04:28:20.866Z,4.70
2022-12-11T04:31:24.884Z,6.25
2022-12-11T04:34:29.080Z,5.65
2022-12-11T04:37:32.366Z,6.03
2022-12-11T04:40:36.210Z,5.07
2022-12-11T04:43:40.372Z,4.03
2022-12-11T04:46:43.786Z,5.75
2022-12-11T04:49:47.430Z,4.13
2022-12-11T04:52:51.408Z,4.72
2022-12-11T04:55:55.045Z,5.40
2022-12-11T04:58:58.708Z,8.27
2022-12-11T05:02:02.189Z,8.05
2022-12-11T05:05:07.384Z,8.23
2022-12-11T05:08:11.532Z,10.25
2022-12-11T05:11:16.389Z,7.78
2022-12-11T05:14:20.450Z,7.83
2022-12-11T05:17:24.243Z,10.20
2022-12-11T05:20:29.916Z,13.07
2022-12-11T05:23:34.306Z,20.70
2022-12-11T05:26:38.431Z,11.52
2022-12-11T05:29:42.075Z,12.50
2022-12-11T05:32:46.278Z,9.50
2022-12-11T05:35:50.649Z,8.48
2022-12-11T05:38:55.125Z,6.15
2022-12-11T05:41:58.924Z,9.65
2022-12-11T05:45:02.717Z,5.50
2022-12-11T05:48:06.524Z,6.10
2022-12-11T05:51:11.541Z,5.20
2022-12-11T05:54:15.893Z,6.10
2022-12-11T05:57:19.917Z,6.65
2022-12-11T06:00:23.768Z,5.57
2022-12-11T06:03:28.031Z,6.00
2022-12-11T06:06:32.285Z,5.50
2022-12-11T06:09:36.400Z,7.25
2022-12-11T06:12:39.979Z,8.45
2022-12-11T06:15:44.097Z,7.10
2022-12-11T06:18:48.693Z,10.25
2022-12-11T06:21:52.762Z,7.53
2022-12-11T06:24:56.585Z,7.30
2022-12-11T06:28:00.604Z,7.65
2022-12-11T06:31:05.119Z,8.63
2022-12-11T06:34:10.401Z,6.70
2022-12-11T06:37:14.588Z,8.55
2022-12-11T06:40:18.717Z,11.68
2022-12-11T06:43:22.401Z,17.80
2022-12-11T06:46:26.495Z,11.53
2022-12-11T06:49:31.068Z,7.45
2022-12-11T06:52:34.835Z,14.82
2022-12-11T06:55:38.713Z,11.80
2022-12-11T06:58:44.830Z,13.32
2022-12-11T07:01:48.755Z,14.07
2022-12-11T07:04:55.186Z,10.45
2022-12-11T07:07:59.336Z,9.45
2022-12-11T07:11:05.612Z,12.27
2022-12-11T07:14:09.795Z,19.98
2022-12-11T07:17:13.807Z,18.93
2022-12-11T07:20:17.836Z,24.70
2022-12-11T07:23:22.518Z,16.70
2022-12-11T07:26:26.443Z,19.67
2022-12-11T07:29:30.748Z,24.05
2022-12-11T07:32:34.644Z,27.83
2022-12-11T07:35:38.803Z,17.75
2022-12-11T07:38:42.882Z,18.38
2022-12-11T07:41:48.049Z,16.17
2022-12-11T07:44:53.628Z,17.80
2022-12-11T07:47:57.615Z,15.70
2022-12-11T07:51:15.822Z,13.18
2022-12-11T07:54:21.894Z,19.45
2022-12-11T07:57:25.741Z,18.88
2022-12-11T08:00:29.772Z,17.02
2022-12-11T08:03:33.031Z,15.30
2022-12-11T08:06:40.067Z,16.10
2022-12-11T08:09:43.705Z,29.67
2022-12-11T08:12:47.723Z,21.83
2022-12-11T08:15:54.595Z,19.03
2022-12-11T08:18:59.379Z,31.15
2022-12-11T08:22:02.756Z,24.45
2022-12-11T08:25:07.381Z,17.70
2022-12-11T08:28:11.062Z,21.50
2022-12-11T08:31:16.588Z,17.17
2022-12-11T08:34:20.376Z,19.40
2022-12-11T08:37:24.752Z,11.57
2022-12-11T08:40:28.439Z,13.07
2022-12-11T08:43:35.073Z,19.20
2022-12-11T08:46:39.015Z,11.87
2022-12-11T08:49:42.832Z,13.23
2022-12-11T08:52:46.593Z,12.68
2022-12-11T08:55:50.989Z,15.75
2022-12-11T08:58:55.414Z,14.23
2022-12-11T09:01:59.553Z,11.73
2022-12-11T09:05:02.651Z,17.60
2022-12-11T09:08:06.826Z,16.58
2022-12-11T09:11:14.572Z,18.17
2022-12-11T09:14:17.915Z,20.58
2022-12-11T09:17:21.664Z,21.10
2022-12-11T09:20:25.337Z,35.00
2022-12-11T09:23:28.900Z,39.90
2022-12-11T09:26:33.089Z,47.42
2022-12-11T09:29:36.787Z,18.42
2022-12-11T09:32:40.565Z,14.17
2022-12-11T09:35:43.887Z,12.93
2022-12-11T09:38:47.950Z,10.55
2022-12-11T09:42:09.332Z,9.25
2022-12-11T09:45:16.491Z,11.38
2022-12-11T09:48:24.872Z,9.57
2022-12-11T09:51:33.612Z,21.15
2022-12-11T09:54:37.329Z,38.83
2022-12-11T09:58:14.064Z,43.25
2022-12-11T10:01:41.919Z,39.20
2022-12-11T10:05:10.369Z,39.28
2022-12-11T10:08:26.186Z,41.17
2022-12-11T10:12:05.662Z,47.17
2022-12-11T10:15:26.801Z,49.70
2022-12-11T10:18:32.372Z,47.73
2022-12-11T10:21:41.207Z,52.63
2022-12-11T10:25:11.084Z,17.77
2022-12-11T10:28:19.655Z,11.05
2022-12-11T10:31:44.423Z,10.07
2022-12-11T10:34:50.135Z,10.50
2022-12-11T10:37:58.964Z,10.30
2022-12-11T10:41:06.186Z,15.18
2022-12-11T10:44:27.209Z,15.73
2022-12-11T10:47:30.644Z,23.60
2022-12-11T10:50:34.753Z,73.97
2022-12-11T10:53:38.120Z,93.07
2022-12-11T10:56:41.613Z,89.53
2022-12-11T10:59:48.582Z,86.07
2022-12-11T11:02:52.680Z,89.97
2022-12-11T11:06:17.715Z,91.57
2022-12-11T11:09:39.058Z,79.00
2022-12-11T11:12:45.600Z,78.70
2022-12-11T11:15:50.020Z,88.25
2022-12-11T11:18:56.433Z,82.18
2022-12-11T11:22:02.755Z,60.03
2022-12-11T11:25:06.642Z,45.65
2022-12-11T11:28:26.941Z,44.80
2022-12-11T11:31:35.755Z,50.47
2022-12-11T11:34:39.969Z,41.35
2022-12-11T11:37:50.266Z,30.50
2022-12-11T11:41:38.692Z,33.97
2022-12-11T11:44:57.760Z,23.42
2022-12-11T11:48:18.333Z,25.10
2022-12-11T11:52:05.208Z,34.42
2022-12-11T11:55:29.375Z,29.50
2022-12-11T11:58:47.401Z,28.80
2022-12-11T12:01:54.966Z,26.55
2022-12-11T12:04:58.088Z,30.90
2022-12-11T12:08:16.509Z,26.13
2022-12-11T12:11:42.372Z,18.53
2022-12-11T12:15:14.585Z,18.15
2022-12-11T12:18:40.004Z,25.92
2022-12-11T12:21:48.590Z,26.98
2022-12-11T12:25:24.835Z,17.73
2022-12-11T12:28:31.270Z,19.73
2022-12-11T12:32:02.620Z,20.88
2022-12-11T12:35:31.958Z,21.15
2022-12-11T12:38:52.214Z,21.35
2022-12-11T12:42:22.060Z,21.08
2022-12-11T12:45:41.067Z,19.07
2022-12-11T12:48:46.770Z,17.48
2022-12-11T12:51:51.823Z,20.63
2022-12-11T12:55:17.132Z,20.02
2022-12-11T12:58:43.700Z,18.05
2022-12-11T13:01:53.306Z,17.27
2022-12-11T13:05:04.038Z,15.25
2022-12-11T13:08:07.274Z,16.20
2022-12-11T13:11:13.413Z,13.82
2022-12-11T13:14:17.335Z,16.43
2022-12-11T13:17:23.351Z,15.05
2022-12-11T13:20:31.517Z,14.02
2022-12-11T13:23:35.807Z,14.80
2022-12-11T13:26:40.722Z,14.18
2022-12-11T13:29:44.507Z,15.47
2022-12-11T13:33:24.028Z,14.35
2022-12-11T13:36:31.968Z,13.32
2022-12-11T13:39:40.939Z,13.60
2022-12-11T13:43:00.073Z,12.65
2022-12-11T13:46:11.467Z,11.70
2022-12-11T13:49:24.722Z,11.10
2022-12-11T13:52:29.438Z,10.57
2022-12-11T13:55:35.155Z,11.73
2022-12-11T13:58:41.544Z,10.20
2022-12-11T14:01:44.574Z,10.70
2022-12-11T14:04:50.404Z,10.55
2022-12-11T14:07:59.409Z,11.75
2022-12-11T14:11:03.215Z,11.90
2022-12-11T14:14:17.042Z,14.43
2022-12-11T14:17:31.027Z,16.10
2022-12-11T14:20:35.897Z,14.57
2022-12-11T14:23:39.659Z,15.95
2022-12-11T14:26:51.887Z,14.73
2022-12-11T14:29:55.928Z,15.95
2022-12-11T14:33:03.134Z,14.38
2022-12-11T14:36:07.296Z,13.85
2022-12-11T14:39:34.845Z,13.82
2022-12-11T14:42:43.853Z,15.30
2022-12-11T14:45:50.642Z,15.45
2022-12-11T14:49:01.622Z,14.23
2022-12-11T14:52:06.185Z,12.73
2022-12-11T14:55:13.596Z,13.95
2022-12-11T14:58:24.122Z,12.27
2022-12-11T15:01:33.078Z,11.75
2022-12-11T15:04:37.363Z,10.30
2022-12-11T15:07:44.223Z,11.65
2022-12-11T15:11:10.238Z,11.95
2022-12-11T15:14:16.374Z,11.63
2022-12-11T15:17:20.272Z,12.02
2022-12-11T15:20:32.866Z,12.10
2022-12-11T15:23:57.166Z,12.35
2022-12-11T15:27:01.797Z,11.95
2022-12-11T15:30:29.549Z,11.60
2022-12-11T15:33:34.577Z,7.00
2022-12-11T15:36:38.991Z,9.50
2022-12-11T15:39:42.834Z,7.20
2022-12-11T15:42:48.305Z,4.60
2022-12-11T15:45:51.358Z,4.87
2022-12-11T15:48:54.957Z,3.65
2022-12-11T15:51:58.790Z,3.03
2022-12-11T15:55:02.955Z,2.95
2022-12-11T15:58:09.807Z,3.73
2022-12-11T16:01:14.131Z,3.97
2022-12-11T16:04:17.779Z,3.25
2022-12-11T16:07:26.792Z,2.70
2022-12-11T16:10:30.649Z,6.27
2022-12-11T16:13:34.356Z,3.17
2022-12-11T16:16:37.981Z,2.53
2022-12-11T16:19:42.816Z,3.20
2022-12-11T16:22:46.570Z,3.27
2022-12-11T16:25:50.913Z,3.05
2022-12-11T16:28:54.685Z,2.40
2022-12-11T16:31:57.694Z,2.53
2022-12-11T16:35:01.649Z,1.00
2022-12-11T16:38:05.961Z,2.57
2022-12-11T16:41:09.749Z,1.63
2022-12-11T16:44:13.958Z,2.00
2022-12-11T16:47:17.675Z,1.35
2022-12-11T16:50:21.913Z,2.30
2022-12-11T16:53:26.271Z,1.52
2022-12-11T16:56:30.067Z,2.17
2022-12-11T16:59:37.238Z,1.27
2022-12-11T17:02:41.831Z,1.80
2022-12-11T17:05:45.546Z,1.23
2022-12-11T17:08:49.145Z,1.90
2022-12-11T17:11:53.845Z,1.73
2022-12-11T17:14:58.014Z,1.48
2022-12-11T17:18:01.310Z,1.77
2022-12-11T17:21:15.062Z,1.58
2022-12-11T17:24:18.526Z,1.45
2022-12-11T17:27:22.257Z,2.13
2022-12-11T17:30:25.898Z,1.63
2022-12-11T17:33:30.095Z,1.77
2022-12-11T17:36:34.687Z,2.42
2022-12-11T17:39:39.668Z,1.83
2022-12-11T17:42:45.351Z,1.97
2022-12-11T17:45:53.009Z,2.40
2022-12-11T17:48:57.209Z,2.53
2022-12-11T17:52:01.343Z,0.85
2022-12-11T17:55:06.533Z,1.40
2022-12-11T17:58:16.280Z,2.15
2022-12-11T18:01:20.458Z,1.80
2022-12-11T18:04:23.679Z,1.75
2022-12-11T18:07:27.428Z,1.52
2022-12-11T18:10:31.086Z,2.07
2022-12-11T18:13:34.215Z,1.63
2022-12-11T18:16:39.275Z,1.08
2022-12-11T18:19:46.081Z,2.63
2022-12-11T18:22:50.075Z,1.58
2022-12-11T18:25:53.815Z,2.25
2022-12-11T18:28:57.599Z,2.40
2022-12-11T18:32:01.229Z,1.75
2022-12-11T18:35:05.757Z,3.03
2022-12-11T18:38:11.080Z,2.25
2022-12-11T18:41:15.562Z,1.48
2022-12-11T18:44:23.135Z,1.80
2022-12-11T18:47:27.539Z,2.55
2022-12-11T18:50:31.221Z,1.85
2022-12-11T18:53:35.853Z,1.80
2022-12-11T18:56:39.339Z,1.37
2022-12-11T18:59:43.376Z,2.30
2022-12-11T19:02:47.148Z,1.20
2022-12-11T19:05:50.853Z,1.67
2022-12-11T19:08:54.520Z,1.73
2022-12-11T19:11:58.495Z,1.48
2022-12-11T19:15:02.278Z,1.63
2022-12-11T19:18:06.400Z,1.58
2022-12-11T19:21:12.442Z,1.13
2022-12-11T19:24:20.582Z,1.85
2022-12-11T19:27:24.659Z,1.45
2022-12-11T19:30:28.767Z,2.38
2022-12-11T19:33:32.359Z,1.00
2022-12-11T19:36:38.112Z,1.63
2022-12-11T19:39:41.732Z,1.02
2022-12-11T19:42:45.860Z,1.42
2022-12-11T19:45:49.838Z,1.57
2022-12-11T19:48:55.055Z,2.58
2022-12-11T19:51:58.679Z,1.80
2022-12-11T19:55:04.654Z,1.85
2022-12-11T19:58:08.320Z,1.73
2022-12-11T20:01:25.504Z,1.70
2022-12-11T20:04:29.384Z,1.73
2022-12-11T20:07:33.174Z,1.30
2022-12-11T20:10:37.503Z,1.23
2022-12-11T20:13:41.920Z,1.88
2022-12-11T20:17:10.098Z,1.23
2022-12-11T20:20:10.686Z,0.90
2022-12-11T20:23:14.037Z,1.13
2022-12-11T20:26:24.280Z,1.20
2022-12-11T20:29:28.263Z,1.65
2022-12-11T20:32:31.901Z,1.70
2022-12-11T20:35:34.970Z,1.88
2022-12-11T20:38:39.136Z,1.27
2022-12-11T20:41:42.825Z,2.50
2022-12-11T20:44:49.245Z,1.83
2022-12-11T20:47:53.347Z,1.23
2022-12-11T20:51:03.756Z,1.35
2022-12-11T20:54:06.979Z,1.27
2022-12-11T20:57:11.520Z,1.27
2022-12-11T21:00:15.713Z,2.55
2022-12-11T21:03:20.023Z,1.55
2022-12-11T21:06:26.538Z,1.83
2022-12-11T21:09:30.403Z,1.30
2022-12-11T21:12:34.393Z,1.70
2022-12-11T21:15:40.310Z,1.02
2022-12-11T21:18:44.851Z,0.88
2022-12-11T21:21:49.598Z,1.50
2022-12-11T21:24:53.014Z,0.95
2022-12-11T21:27:57.172Z,0.60
2022-12-11T21:31:04.088Z,1.48
2022-12-11T21:34:08.407Z,2.70
2022-12-11T21:37:12.067Z,1.77
2022-12-11T21:40:15.579Z,1.77
2022-12-11T21:43:19.423Z,2.33
2022-12-11T21:46:26.303Z,1.90
2022-12-11T21:49:29.634Z,1.30
2022-12-11T21:52:33.697Z,1.67
2022-12-11T21:55:41.813Z,1.90
2022-12-11T21:58:46.465Z,2.22
2022-12-11T22:01:50.280Z,1.88
2022-12-11T22:04:55.134Z,2.20
2022-12-11T22:07:58.380Z,0.70
2022-12-11T22:11:02.457Z,1.70
2022-12-11T22:14:07.472Z,1.88
2022-12-11T22:17:11.063Z,2.15
2022-12-11T22:20:15.099Z,2.83
2022-12-11T22:23:18.994Z,2.08
2022-12-11T22:26:26.808Z,2.40
2022-12-11T22:29:30.289Z,2.33
2022-12-11T22:32:33.591Z,2.70
2022-12-11T22:35:37.929Z,2.28
2022-12-11T22:38:41.662Z,2.45
2022-12-11T22:41:45.666Z,1.93
2022-12-11T22:44:49.319Z,1.10
2022-12-11T22:47:53.438Z,3.15
2022-12-11T22:50:56.986Z,3.03
2022-12-11T22:54:02.129Z,2.13
2022-12-11T22:57:05.767Z,2.25
2022-12-11T23:00:12.026Z,1.98
2022-12-11T23:03:15.811Z,2.50
2022-12-11T23:06:22.860Z,3.13
2022-12-11T23:09:26.719Z,2.20
2022-12-11T23:12:30.468Z,2.00
2022-12-11T23:15:34.559Z,2.80
2022-12-11T23:18:38.506Z,1.95
2022-12-11T23:21:42.985Z,1.55
2022-12-11T23:24:48.153Z,2.75
2022-12-11T23:27:51.621Z,1.98
2022-12-11T23:30:55.968Z,2.95
2022-12-11T23:33:59.890Z,2.77
2022-12-11T23:37:04.131Z,2.63
2022-12-11T23:40:09.621Z,2.00
2022-12-11T23:43:13.642Z,2.63
2022-12-11T23:46:20.982Z,1.40
2022-12-11T23:49:25.126Z,1.92
2022-12-11T23:52:28.730Z,2.58
2022-12-11T23:55:32.937Z,2.47
2022-12-11T23:58:38.033Z,2.05
